CheckWX is a tool to help pilots better visualize weather data.  It is not intended as a substitute for an official pre-flight weather briefing.

05:09:30 UTC

LFPV METAR
Villacoublay-Vélizy (BA 107) Air Base Airport
Villacoublay/Vélizy, France
Current

40 mins ago

LFPV 020430Z AUTO 04006KT CAVOK 16/11 Q1017 NOSIG
Observed
Jun-2 @ 04:30 UTC
Wind
  • 040° at 6 KTS
Visibility
10,000+ meters
Flight Rules
VFR
Cloud Levels
  • Clear skies
Temperature
16°C / 61°F
Dewpoint
11°C / 52°F
Humidity
72%
Altimeter
30.03" Hg
Pressure
1016.92 hPa
Previous

1 hour ago

LFPV 020400Z AUTO 01005KT CAVOK 15/11 Q1017 NOSIG
Observed
Jun-2 @ 04:00 UTC
Wind
  • 010° at 5 KTS
Visibility
10,000+ meters
Flight Rules
VFR
Cloud Levels
  • Clear skies
Temperature
15°C / 59°F
Dewpoint
11°C / 52°F
Humidity
77%
Altimeter
30.03" Hg
Pressure
1016.92 hPa
Previous

2 hours ago

LFPV 020330Z AUTO 01004KT CAVOK 15/11 Q1017 NOSIG
Observed
Jun-2 @ 03:30 UTC
Wind
  • 010° at 4 KTS
Visibility
10,000+ meters
Flight Rules
VFR
Cloud Levels
  • Clear skies
Temperature
15°C / 59°F
Dewpoint
11°C / 52°F
Humidity
77%
Altimeter
30.03" Hg
Pressure
1016.92 hPa